LFML/MRS METAR and TAF weather

Enter ICAO airport designator
Station Type Date Time Source
LFML METAR 2022/01/25 04:30 UTC NOAA

LFML 250430Z AUTO 00000KT 6000 SCT026 BKN032 03/02 Q1032 TEMPO 2000 BR


Station Type Date Time Source
LFML Decoded METAR 2022/01/25 04:30 UTC NOAA

Marseille / Marignane, France (LFML) 43-27N 005-14E 36M
Jan 24, 2022 - 11:30 PM EST / 2022.01.25 0430 UTC
Wind: Calm:0
Visibility: 3 mile(s):0
Sky conditions: mostly cloudy
Temperature: 37 F (3 C)
Dew Point: 35 F (2 C)
Relative Humidity: 93%
Pressure (altimeter): 30.47 in. Hg (1032 hPa)
ob: LFML 250430Z AUTO 00000KT 6000 SCT026 BKN032 03/02 Q1032 TEMPO 2000 BR
cycle: 4

Station Type Date Time Source
LFML TAF 2022/01/25 03:44 UTC NOAA

TAF LFML 250200Z 2503/2609 VRB03KT 6000 SCT020 TX11/2514Z TN01/2503Z
TEMPO 2503/2508 2000 BR
BECMG 2523/2601 3000 BR PROB40
TEMPO 2601/2609 0300 FG VV/// PROB30
TEMPO 2603/2609 32010KT BKN003

Example: see airport list